Time;durP1;ratioP1;P1;durP2;ratioP2;P2;SDS_P1;SDS_P2;PMS_P1;PMS_P2;Temp;Humidity;BMP_temperature;BMP_pressure;BME280_temperature;BME280_humidity;BME280_pressure;Samples;Min_cycle;Max_cycle;Signal;HPM_P1;HPM_P2
2022/02/16 00:00:49;;;;;;;13.48;9.48;;;;;;;;;;5091459;28;20383;-64
2022/02/16 00:03:15;;;;;;;16.88;10.23;;;;;;;;;;5091220;28;20380;-63
2022/02/16 00:05:41;;;;;;;13.13;9.43;;;;;;;;;;5091458;28;20024;-64
2022/02/16 00:08:07;;;;;;;12.77;9.23;;;;;;;;;;5091504;28;20028;-62
2022/02/16 00:10:34;;;;;;;12.45;8.82;;;;;;;;;;5073683;28;20390;-65
2022/02/16 00:13:00;;;;;;;16.73;9.73;;;;;;;;;;5091276;28;20150;-62
2022/02/16 00:15:28;;;;;;;14.15;8.80;;;;;;;;;;5091360;28;20027;-64
2022/02/16 00:17:54;;;;;;;12.38;8.90;;;;;;;;;;5073037;28;20372;-64
2022/02/16 00:20:20;;;;;;;14.27;9.90;;;;;;;;;;5091192;28;20021;-64
2022/02/16 00:22:47;;;;;;;15.02;9.80;;;;;;;;;;5091252;28;20179;-64
2022/02/16 00:25:13;;;;;;;13.15;8.88;;;;;;;;;;5091229;28;20022;-64
2022/02/16 00:27:39;;;;;;;13.77;9.50;;;;;;;;;;5091193;28;20052;-62
2022/02/16 00:30:07;;;;;;;14.10;9.75;;;;;;;;;;5091262;28;20020;-63
2022/02/16 00:32:33;;;;;;;12.88;8.75;;;;;;;;;;5091349;28;20016;-63
2022/02/16 00:34:59;;;;;;;21.55;9.38;;;;;;;;;;5091114;28;20452;-63
2022/02/16 00:37:25;;;;;;;13.90;9.30;;;;;;;;;;5091111;28;20032;-64
2022/02/16 00:39:51;;;;;;;13.40;9.45;;;;;;;;;;5091155;28;20085;-64
2022/02/16 00:42:18;;;;;;;13.57;9.30;;;;;;;;;;5094290;28;20126;-64
2022/02/16 00:44:44;;;;;;;13.82;9.18;;;;;;;;;;5095195;28;20062;-64
2022/02/16 00:47:10;;;;;;;15.55;9.80;;;;;;;;;;5095293;28;20088;-64
2022/02/16 00:49:36;;;;;;;13.35;8.40;;;;;;;;;;5083242;28;20115;-61
2022/02/16 00:52:02;;;;;;;12.00;8.25;;;;;;;;;;5074795;28;20464;-64
2022/02/16 00:54:29;;;;;;;15.57;10.05;;;;;;;;;;5074793;28;20029;-61
2022/02/16 00:56:57;;;;;;;12.82;8.73;;;;;;;;;;5074318;28;20055;-63
2022/02/16 00:59:23;;;;;;;15.85;9.63;;;;;;;;;;5074550;28;20023;-62
2022/02/16 01:01:49;;;;;;;18.00;9.10;;;;;;;;;;5074526;28;20522;-61
2022/02/16 01:04:15;;;;;;;15.68;9.45;;;;;;;;;;5074666;28;20392;-63
2022/02/16 01:06:41;;;;;;;12.45;8.75;;;;;;;;;;5074422;28;20024;-61
2022/02/16 01:09:07;;;;;;;13.00;9.23;;;;;;;;;;5074585;28;20078;-60
2022/02/16 01:11:34;;;;;;;17.40;10.70;;;;;;;;;;5074317;28;20531;-63
2022/02/16 01:14:00;;;;;;;13.57;8.98;;;;;;;;;;5074453;28;20483;-59
2022/02/16 01:16:26;;;;;;;12.93;8.93;;;;;;;;;;5074382;28;20125;-62
2022/02/16 01:18:52;;;;;;;13.27;9.60;;;;;;;;;;5074378;28;20024;-63
2022/02/16 01:21:18;;;;;;;13.88;9.18;;;;;;;;;;5076402;28;20044;-63
2022/02/16 01:23:44;;;;;;;13.07;9.18;;;;;;;;;;5095123;28;20020;-61
2022/02/16 01:26:12;;;;;;;14.13;9.60;;;;;;;;;;5094421;28;20024;-63
2022/02/16 01:28:38;;;;;;;14.30;9.02;;;;;;;;;;5094747;28;20021;-60
2022/02/16 01:31:04;;;;;;;13.00;9.15;;;;;;;;;;5094767;28;20074;-62
2022/02/16 01:33:30;;;;;;;14.82;9.30;;;;;;;;;;5094709;28;20031;-59
2022/02/16 01:35:56;;;;;;;12.77;9.93;;;;;;;;;;5094475;28;20540;-61
2022/02/16 01:38:22;;;;;;;13.10;9.52;;;;;;;;;;5094346;28;20066;-63
2022/02/16 01:40:48;;;;;;;13.70;10.20;;;;;;;;;;5094428;28;20023;-63
2022/02/16 01:43:16;;;;;;;13.05;9.30;;;;;;;;;;5094120;28;20024;-62
2022/02/16 01:45:42;;;;;;;14.48;9.10;;;;;;;;;;5094314;28;20028;-60
2022/02/16 01:48:08;;;;;;;15.73;11.13;;;;;;;;;;5094146;28;20024;-59
2022/02/16 01:50:34;;;;;;;12.55;9.70;;;;;;;;;;5075950;28;20471;-60
2022/02/16 01:53:00;;;;;;;12.60;9.23;;;;;;;;;;5093007;28;20099;-60
2022/02/16 01:55:27;;;;;;;13.77;9.13;;;;;;;;;;5094051;28;20087;-63
2022/02/16 01:57:53;;;;;;;16.25;10.43;;;;;;;;;;5093855;28;20043;-62
2022/02/16 02:00:19;;;;;;;17.27;11.48;;;;;;;;;;5093998;28;20012;-63
2022/02/16 02:02:45;;;;;;;16.00;9.98;;;;;;;;;;5093828;28;20040;-61
2022/02/16 02:05:11;;;;;;;15.55;10.60;;;;;;;;;;5093954;28;20097;-63
2022/02/16 02:07:40;;;;;;;15.82;10.55;;;;;;;;;;5091656;28;20039;-61
2022/02/16 02:10:06;;;;;;;16.88;10.88;;;;;;;;;;5073895;28;20111;-63
2022/02/16 02:12:32;;;;;;;15.63;10.18;;;;;;;;;;5073504;28;20020;-63
2022/02/16 02:14:58;;;;;;;13.95;9.82;;;;;;;;;;5073390;28;20032;-62
2022/02/16 02:17:24;;;;;;;17.30;9.63;;;;;;;;;;5073381;28;20086;-62
2022/02/16 02:19:50;;;;;;;14.15;9.45;;;;;;;;;;5073559;28;20032;-63
2022/02/16 02:22:16;;;;;;;14.07;9.52;;;;;;;;;;5073561;28;20024;-62
2022/02/16 02:24:42;;;;;;;15.68;10.55;;;;;;;;;;5073482;28;20035;-63
2022/02/16 02:27:08;;;;;;;15.75;10.75;;;;;;;;;;5073382;28;20024;-64
2022/02/16 02:29:39;;;;;;;13.57;9.25;;;;;;;;;;5073476;28;20074;-64
2022/02/16 02:32:05;;;;;;;13.90;9.65;;;;;;;;;;5073545;28;20024;-64
2022/02/16 02:34:31;;;;;;;13.52;9.50;;;;;;;;;;5073540;28;20107;-62
2022/02/16 02:36:57;;;;;;;17.65;11.07;;;;;;;;;;5055233;28;20032;-64
2022/02/16 02:39:23;;;;;;;14.60;10.00;;;;;;;;;;5073377;28;20074;-64
2022/02/16 02:41:49;;;;;;;12.82;9.57;;;;;;;;;;5073115;28;20099;-62
2022/02/16 02:44:15;;;;;;;12.82;8.98;;;;;;;;;;5073213;28;20068;-64
2022/02/16 02:46:41;;;;;;;14.13;9.60;;;;;;;;;;5073009;28;20532;-61
2022/02/16 02:49:09;;;;;;;16.63;9.90;;;;;;;;;;5073247;28;20051;-63
2022/02/16 02:51:35;;;;;;;15.93;9.93;;;;;;;;;;5073570;28;20108;-63
2022/02/16 02:54:01;;;;;;;15.00;9.52;;;;;;;;;;5073248;28;20028;-63
2022/02/16 02:56:27;;;;;;;14.63;9.60;;;;;;;;;;5073158;28;20104;-63
2022/02/16 02:58:53;;;;;;;13.13;9.55;;;;;;;;;;5073094;28;20368;-62
2022/02/16 03:01:19;;;;;;;17.10;10.82;;;;;;;;;;5072988;28;20095;-62
2022/02/16 03:03:45;;;;;;;14.55;9.43;;;;;;;;;;5072758;28;20560;-63
2022/02/16 03:06:11;;;;;;;14.35;9.82;;;;;;;;;;5072453;28;20648;-62
2022/02/16 03:08:39;;;;;;;14.05;10.00;;;;;;;;;;5072563;28;20056;-62
2022/02/16 03:11:05;;;;;;;16.08;9.18;;;;;;;;;;5073012;28;20020;-65
2022/02/16 03:13:31;;;;;;;13.55;9.02;;;;;;;;;;5072744;28;20031;-60
2022/02/16 03:15:57;;;;;;;13.75;9.27;;;;;;;;;;5072428;28;20074;-62
2022/02/16 03:18:23;;;;;;;13.27;8.75;;;;;;;;;;5072171;28;20043;-61
2022/02/16 03:20:51;;;;;;;13.77;9.23;;;;;;;;;;5072312;28;20025;-63
2022/02/16 03:23:17;;;;;;;13.85;8.90;;;;;;;;;;5071646;28;20078;-62
2022/02/16 03:25:44;;;;;;;14.90;10.32;;;;;;;;;;5072048;28;20025;-63
2022/02/16 03:28:10;;;;;;;15.60;10.55;;;;;;;;;;5072334;28;20038;-63
2022/02/16 03:30:36;;;;;;;14.95;9.77;;;;;;;;;;5072327;28;20025;-62
2022/02/16 03:33:06;;;;;;;15.40;10.25;;;;;;;;;;5071922;28;20075;-63
2022/02/16 03:35:32;;;;;;;12.63;9.05;;;;;;;;;;5072038;28;20033;-62
2022/02/16 03:37:58;;;;;;;13.85;9.20;;;;;;;;;;5071973;28;20040;-63
2022/02/16 03:40:25;;;;;;;13.82;9.20;;;;;;;;;;5071915;28;20025;-63
2022/02/16 03:42:51;;;;;;;14.00;9.38;;;;;;;;;;5072066;28;20056;-65
2022/02/16 03:45:17;;;;;;;15.70;9.95;;;;;;;;;;5071863;28;20400;-60
2022/02/16 03:47:44;;;;;;;14.38;9.98;;;;;;;;;;5071921;28;20095;-63
2022/02/16 03:50:11;;;;;;;17.52;8.85;;;;;;;;;;5053854;28;20161;-62
2022/02/16 03:52:37;;;;;;;17.00;9.75;;;;;;;;;;5071839;28;20031;-60
2022/02/16 03:55:03;;;;;;;16.60;10.70;;;;;;;;;;5071844;28;20032;-66
2022/02/16 03:57:30;;;;;;;13.27;9.32;;;;;;;;;;5071771;28;20480;-65
2022/02/16 03:59:56;;;;;;;15.07;9.65;;;;;;;;;;5072130;28;20203;-63
2022/02/16 04:02:22;;;;;;;15.35;10.45;;;;;;;;;;5071937;28;20068;-62
2022/02/16 04:04:48;;;;;;;16.63;9.93;;;;;;;;;;5072025;28;20494;-63
2022/02/16 04:07:14;;;;;;;13.07;8.77;;;;;;;;;;5071743;28;20056;-64
2022/02/16 04:09:41;;;;;;;14.02;9.77;;;;;;;;;;5071418;28;20471;-62
2022/02/16 04:12:08;;;;;;;15.60;10.52;;;;;;;;;;5071562;28;20043;-62
2022/02/16 04:14:34;;;;;;;13.93;9.32;;;;;;;;;;5071725;28;20021;-65
2022/02/16 04:17:00;;;;;;;12.50;8.70;;;;;;;;;;5070769;28;20032;-65
2022/02/16 04:19:26;;;;;;;14.68;9.43;;;;;;;;;;5071379;28;20055;-65
2022/02/16 04:21:52;;;;;;;14.25;9.07;;;;;;;;;;5071455;28;20100;-62
2022/02/16 04:24:18;;;;;;;13.10;8.57;;;;;;;;;;5071497;28;20021;-62
2022/02/16 04:26:44;;;;;;;16.45;8.18;;;;;;;;;;5053259;28;20029;-61
2022/02/16 04:29:10;;;;;;;13.20;9.35;;;;;;;;;;5071426;28;20387;-63
2022/02/16 04:31:36;;;;;;;15.23;9.15;;;;;;;;;;5071518;28;20035;-63
2022/02/16 04:34:02;;;;;;;13.88;9.38;;;;;;;;;;5071449;28;20162;-63
2022/02/16 04:36:28;;;;;;;13.13;9.63;;;;;;;;;;5071238;28;20047;-64
2022/02/16 04:38:55;;;;;;;13.80;9.90;;;;;;;;;;5071299;28;20043;-59
2022/02/16 04:41:22;;;;;;;15.27;9.82;;;;;;;;;;5071237;28;20024;-61
2022/02/16 04:43:48;;;;;;;13.35;8.77;;;;;;;;;;5071057;28;20021;-64
2022/02/16 04:46:14;;;;;;;12.40;8.82;;;;;;;;;;5071186;28;20574;-59
2022/02/16 04:48:40;;;;;;;12.25;8.52;;;;;;;;;;5071195;28;20403;-61
2022/02/16 04:51:06;;;;;;;14.30;8.82;;;;;;;;;;5071519;28;20016;-61
2022/02/16 04:53:32;;;;;;;12.82;9.32;;;;;;;;;;5071263;28;20021;-62
2022/02/16 04:56:02;;;;;;;13.82;9.30;;;;;;;;;;5071158;28;20024;-59
2022/02/16 04:58:28;;;;;;;11.68;8.70;;;;;;;;;;5071022;28;20119;-64
2022/02/16 05:00:54;;;;;;;14.40;8.73;;;;;;;;;;5071069;28;20025;-64
2022/02/16 05:03:21;;;;;;;13.35;8.80;;;;;;;;;;5070736;28;20089;-64
2022/02/16 05:05:47;;;;;;;13.38;10.02;;;;;;;;;;5070977;28;20056;-65
2022/02/16 05:08:13;;;;;;;15.80;10.05;;;;;;;;;;5070947;28;20020;-63
2022/02/16 05:10:40;;;;;;;13.38;9.57;;;;;;;;;;5071057;28;20078;-63
2022/02/16 05:13:07;;;;;;;13.68;9.48;;;;;;;;;;5070371;28;20501;-63
2022/02/16 05:15:33;;;;;;;13.88;8.80;;;;;;;;;;5070576;28;20451;-62
2022/02/16 05:17:59;;;;;;;13.00;9.20;;;;;;;;;;5070929;28;20089;-64
2022/02/16 05:20:25;;;;;;;12.73;8.95;;;;;;;;;;5070855;28;20029;-61
2022/02/16 05:22:52;;;;;;;12.25;8.50;;;;;;;;;;5081763;28;20020;-61
2022/02/16 05:25:18;;;;;;;12.43;9.00;;;;;;;;;;5091078;28;20467;-65
2022/02/16 05:27:44;;;;;;;12.70;9.43;;;;;;;;;;5092942;28;20037;-63
2022/02/16 05:30:10;;;;;;;13.27;9.73;;;;;;;;;;5094685;28;20074;-63
2022/02/16 05:32:37;;;;;;;14.43;9.25;;;;;;;;;;5094461;28;20527;-60
2022/02/16 05:35:03;;;;;;;14.00;9.60;;;;;;;;;;5094498;28;20028;-63
2022/02/16 05:37:30;;;;;;;14.90;10.63;;;;;;;;;;5094220;28;20043;-63
2022/02/16 05:39:56;;;;;;;13.27;9.38;;;;;;;;;;5094313;28;20126;-64
2022/02/16 05:42:22;;;;;;;13.93;9.85;;;;;;;;;;5094355;28;20022;-64
2022/02/16 05:44:48;;;;;;;15.07;9.43;;;;;;;;;;5094505;28;20044;-62
2022/02/16 05:47:14;;;;;;;14.07;9.95;;;;;;;;;;5094286;28;20016;-64
2022/02/16 05:49:40;;;;;;;13.88;8.93;;;;;;;;;;5094339;28;20110;-61
2022/02/16 05:52:07;;;;;;;15.90;9.02;;;;;;;;;;5094534;28;20024;-62
2022/02/16 05:54:33;;;;;;;13.43;8.77;;;;;;;;;;5094232;28;20103;-62
2022/02/16 05:56:59;;;;;;;12.90;8.57;;;;;;;;;;5093997;28;20024;-63
2022/02/16 05:59:25;;;;;;;14.43;9.85;;;;;;;;;;5094147;28;20630;-62
2022/02/16 06:01:51;;;;;;;14.18;9.75;;;;;;;;;;5093921;28;20612;-65
2022/02/16 06:04:17;;;;;;;13.85;10.13;;;;;;;;;;5094013;28;20169;-63
2022/02/16 06:06:44;;;;;;;14.48;10.20;;;;;;;;;;5093758;28;20035;-62
2022/02/16 06:09:10;;;;;;;15.43;10.35;;;;;;;;;;5093928;28;20103;-63
2022/02/16 06:11:36;;;;;;;15.15;9.85;;;;;;;;;;5093805;28;20166;-64
2022/02/16 06:14:02;;;;;;;13.90;9.60;;;;;;;;;;5093454;28;20024;-59
2022/02/16 06:16:29;;;;;;;16.55;11.05;;;;;;;;;;5093562;28;20024;-63
2022/02/16 06:18:55;;;;;;;13.13;8.90;;;;;;;;;;5093643;28;20106;-64
2022/02/16 06:21:21;;;;;;;14.30;9.55;;;;;;;;;;5093713;28;20024;-64
2022/02/16 06:23:47;;;;;;;16.00;9.18;;;;;;;;;;5093604;28;20031;-63
2022/02/16 06:26:13;;;;;;;13.02;9.85;;;;;;;;;;5093741;28;20481;-63
2022/02/16 06:28:39;;;;;;;14.32;9.65;;;;;;;;;;5093511;28;20035;-63
2022/02/16 06:31:07;;;;;;;15.82;10.27;;;;;;;;;;5093523;28;20099;-63
2022/02/16 06:33:33;;;;;;;13.30;9.05;;;;;;;;;;5093439;28;20032;-65
2022/02/16 06:36:00;;;;;;;14.75;9.85;;;;;;;;;;5093219;28;20016;-62
2022/02/16 06:38:26;;;;;;;15.43;10.05;;;;;;;;;;5092678;28;20043;-59
2022/02/16 06:40:52;;;;;;;13.32;10.20;;;;;;;;;;5093119;28;20475;-65
2022/02/16 06:43:18;;;;;;;13.63;9.57;;;;;;;;;;5093241;28;20093;-62
2022/02/16 06:45:44;;;;;;;13.80;9.27;;;;;;;;;;5093138;28;20052;-63
2022/02/16 06:48:10;;;;;;;15.95;9.80;;;;;;;;;;5093118;28;20016;-63
2022/02/16 06:50:36;;;;;;;15.63;9.07;;;;;;;;;;5093037;28;20490;-61
2022/02/16 06:53:02;;;;;;;16.85;10.20;;;;;;;;;;5092984;28;20403;-65
2022/02/16 06:55:28;;;;;;;13.80;8.55;;;;;;;;;;5092840;28;20065;-60
2022/02/16 06:57:55;;;;;;;13.90;9.63;;;;;;;;;;5092801;28;20107;-60
2022/02/16 07:00:21;;;;;;;13.52;8.88;;;;;;;;;;5093017;28;20020;-62
2022/02/16 07:02:48;;;;;;;14.20;8.65;;;;;;;;;;5092770;28;20144;-63
2022/02/16 07:05:14;;;;;;;14.13;9.25;;;;;;;;;;5092664;28;20130;-63
2022/02/16 07:07:41;;;;;;;16.83;10.02;;;;;;;;;;5092513;28;20024;-64
2022/02/16 07:10:07;;;;;;;11.68;8.35;;;;;;;;;;5092571;28;20020;-66
2022/02/16 07:12:33;;;;;;;10.90;7.18;;;;;;;;;;5092391;28;20115;-59
2022/02/16 07:15:00;;;;;;;11.15;8.15;;;;;;;;;;5092330;28;20415;-60
2022/02/16 07:17:26;;;;;;;11.68;6.30;;;;;;;;;;5092597;28;20478;-65
2022/02/16 07:19:52;;;;;;;11.05;7.57;;;;;;;;;;5092729;28;20077;-65
2022/02/16 07:22:18;;;;;;;16.85;7.50;;;;;;;;;;5087639;28;20304;-63
2022/02/16 07:24:44;;;;;;;10.02;7.03;;;;;;;;;;5071718;28;20027;-63
2022/02/16 07:27:10;;;;;;;13.73;7.10;;;;;;;;;;5078062;28;20032;-64
2022/02/16 07:29:36;;;;;;;9.65;5.95;;;;;;;;;;5091710;28;20081;-62
2022/02/16 07:32:03;;;;;;;9.85;6.43;;;;;;;;;;5091749;28;20024;-63
2022/02/16 07:34:30;;;;;;;10.77;5.97;;;;;;;;;;5092005;28;20020;-60
2022/02/16 07:37:00;;;;;;;12.43;6.88;;;;;;;;;;5091835;28;20074;-63
2022/02/16 07:39:27;;;;;;;51.78;7.25;;;;;;;;;;5084175;28;20368;-62
2022/02/16 07:41:54;;;;;;;16.20;6.47;;;;;;;;;;5053697;28;20683;-61
2022/02/16 07:44:20;;;;;;;11.63;5.70;;;;;;;;;;5071598;28;20028;-60
2022/02/16 07:46:47;;;;;;;15.05;5.95;;;;;;;;;;5071471;28;20020;-63
2022/02/16 07:49:13;;;;;;;13.45;5.25;;;;;;;;;;5071509;28;20131;-63
2022/02/16 07:51:39;;;;;;;8.88;5.63;;;;;;;;;;5076361;28;20077;-61
2022/02/16 07:54:05;;;;;;;10.15;5.68;;;;;;;;;;5091852;28;20028;-65
2022/02/16 07:56:34;;;;;;;11.60;5.63;;;;;;;;;;5074623;28;20020;-63
2022/02/16 07:59:00;;;;;;;8.43;5.15;;;;;;;;;;5091678;28;20110;-64
2022/02/16 08:01:26;;;;;;;10.27;5.68;;;;;;;;;;5084319;28;20012;-64
2022/02/16 08:03:52;;;;;;;10.25;4.95;;;;;;;;;;5071712;28;20040;-64
2022/02/16 08:06:18;;;;;;;8.02;4.97;;;;;;;;;;5071346;28;20024;-64
2022/02/16 08:08:44;;;;;;;8.30;4.80;;;;;;;;;;5071482;28;20017;-62
2022/02/16 08:11:11;;;;;;;7.97;4.82;;;;;;;;;;5071372;28;20016;-62
2022/02/16 08:13:37;;;;;;;9.13;4.93;;;;;;;;;;5078888;28;20020;-62
2022/02/16 08:16:03;;;;;;;9.85;5.18;;;;;;;;;;5091626;28;20026;-63
2022/02/16 08:18:29;;;;;;;11.70;4.72;;;;;;;;;;5091416;28;20040;-63
2022/02/16 08:20:55;;;;;;;8.40;4.63;;;;;;;;;;5091442;28;20050;-63
2022/02/16 08:23:21;;;;;;;8.82;4.63;;;;;;;;;;5091186;28;20080;-63
2022/02/16 08:25:47;;;;;;;9.07;4.43;;;;;;;;;;5091967;28;20044;-64
2022/02/16 08:28:13;;;;;;;7.50;4.47;;;;;;;;;;5091744;28;20051;-63
2022/02/16 08:30:39;;;;;;;6.97;3.95;;;;;;;;;;5091506;28;20077;-64
2022/02/16 08:33:05;;;;;;;6.78;4.28;;;;;;;;;;5091737;28;20024;-64
2022/02/16 08:35:31;;;;;;;7.35;3.67;;;;;;;;;;5073761;28;20085;-64
2022/02/16 08:37:58;;;;;;;7.70;4.32;;;;;;;;;;5091479;28;20032;-63
2022/02/16 08:40:24;;;;;;;5.90;3.65;;;;;;;;;;5091270;28;20020;-64
2022/02/16 08:42:50;;;;;;;5.88;3.70;;;;;;;;;;5091064;28;20068;-64
2022/02/16 08:45:16;;;;;;;6.15;3.78;;;;;;;;;;5090937;28;20048;-63
2022/02/16 08:47:42;;;;;;;6.40;3.90;;;;;;;;;;5091095;28;20028;-63
2022/02/16 08:50:09;;;;;;;6.25;3.42;;;;;;;;;;5091013;28;20540;-64
2022/02/16 08:52:35;;;;;;;6.45;3.40;;;;;;;;;;5091074;28;20031;-63
2022/02/16 08:55:01;;;;;;;6.03;3.47;;;;;;;;;;5091028;28;20024;-64
2022/02/16 08:57:27;;;;;;;5.60;3.15;;;;;;;;;;5091175;28;20097;-63
2022/02/16 08:59:54;;;;;;;5.78;3.42;;;;;;;;;;5091462;28;20027;-62
2022/02/16 09:02:20;;;;;;;4.78;2.92;;;;;;;;;;5092524;28;20048;-61
2022/02/16 09:04:46;;;;;;;4.55;2.78;;;;;;;;;;5095113;28;20020;-63
2022/02/16 09:07:30;;;;;;;5.80;3.28;;;;;;;;;;5095574;28;20020;-63
2022/02/16 09:10:07;;;;;;;5.40;3.30;;;;;;;;;;5095237;28;20057;-64
2022/02/16 09:12:33;;;;;;;5.78;3.30;;;;;;;;;;5095063;28;20236;-64
2022/02/16 09:14:59;;;;;;;5.97;2.60;;;;;;;;;;5094917;28;20030;-61
2022/02/16 09:17:26;;;;;;;5.68;3.25;;;;;;;;;;5094579;28;20024;-60
2022/02/16 09:19:53;;;;;;;5.15;2.92;;;;;;;;;;5094781;28;20028;-63
2022/02/16 09:22:19;;;;;;;5.28;2.83;;;;;;;;;;5095018;28;20043;-63
2022/02/16 09:24:46;;;;;;;5.40;2.90;;;;;;;;;;5094943;28;20539;-63
2022/02/16 09:27:15;;;;;;;5.30;3.05;;;;;;;;;;5094389;28;20016;-64
2022/02/16 09:29:41;;;;;;;6.97;3.08;;;;;;;;;;5094475;28;20020;-63
2022/02/16 09:32:07;;;;;;;5.57;2.67;;;;;;;;;;5094243;28;20103;-61
2022/02/16 09:34:34;;;;;;;4.60;2.70;;;;;;;;;;5094065;28;20020;-62
2022/02/16 09:37:00;;;;;;;5.28;2.97;;;;;;;;;;5093922;28;20032;-65
2022/02/16 09:39:26;;;;;;;4.88;2.33;;;;;;;;;;5094316;28;20024;-65
2022/02/16 09:41:52;;;;;;;4.35;2.42;;;;;;;;;;5094043;28;20057;-65
2022/02/16 09:44:25;;;;;;;4.93;2.75;;;;;;;;;;5093924;28;20031;-64
2022/02/16 09:46:51;;;;;;;7.38;3.15;;;;;;;;;;5094035;28;20030;-66
2022/02/16 09:49:18;;;;;;;7.03;2.45;;;;;;;;;;5075766;28;20112;-65
2022/02/16 09:51:44;;;;;;;4.95;2.97;;;;;;;;;;5093576;28;20678;-65
2022/02/16 09:54:12;;;;;;;5.22;2.45;;;;;;;;;;5092585;28;20545;-61
2022/02/16 09:56:42;;;;;;;4.70;2.20;;;;;;;;;;5093534;28;20024;-63
2022/02/16 09:59:08;;;;;;;4.80;2.40;;;;;;;;;;5093812;28;20032;-65
2022/02/16 10:01:52;;;;;;;4.28;2.30;;;;;;;;;;5093702;28;20027;-64
2022/02/16 10:04:18;;;;;;;5.00;2.58;;;;;;;;;;5093796;28;20532;-62
2022/02/16 10:06:48;;;;;;;5.97;2.45;;;;;;;;;;5093504;28;20468;-65
2022/02/16 10:09:31;;;;;;;4.25;2.05;;;;;;;;;;5093755;28;20378;-63
2022/02/16 10:11:59;;;;;;;4.90;2.22;;;;;;;;;;5094055;28;20105;-63
2022/02/16 10:14:27;;;;;;;4.10;2.10;;;;;;;;;;5092868;28;20023;-64
2022/02/16 10:16:53;;;;;;;5.15;2.00;;;;;;;;;;5093388;28;20499;-65
2022/02/16 10:19:19;;;;;;;4.20;1.83;;;;;;;;;;5093180;28;20061;-63
2022/02/16 10:22:00;;;;;;;3.45;1.85;;;;;;;;;;5093595;28;20024;-62
2022/02/16 10:24:26;;;;;;;4.45;1.65;;;;;;;;;;5092185;28;20047;-65
2022/02/16 10:26:53;;;;;;;4.32;2.20;;;;;;;;;;5093090;28;20104;-65
2022/02/16 10:29:24;;;;;;;3.97;2.05;;;;;;;;;;5075104;28;20027;-63
2022/02/16 10:31:50;;;;;;;3.22;1.80;;;;;;;;;;5092873;28;20039;-63
2022/02/16 10:34:16;;;;;;;4.03;1.80;;;;;;;;;;5093311;28;20564;-69
2022/02/16 10:36:46;;;;;;;5.35;1.63;;;;;;;;;;5093023;28;20088;-63
2022/02/16 10:39:14;;;;;;;5.63;1.85;;;;;;;;;;5092589;28;20028;-63
2022/02/16 10:41:40;;;;;;;3.78;1.73;;;;;;;;;;5092841;28;20020;-64
2022/02/16 10:44:23;;;;;;;3.70;1.80;;;;;;;;;;5092772;28;20382;-65
2022/02/16 10:47:03;;;;;;;5.32;1.70;;;;;;;;;;5074607;28;20456;-64
2022/02/16 10:49:30;;;;;;;3.20;1.63;;;;;;;;;;5074719;28;20046;-61
2022/02/16 10:52:04;;;;;;;4.35;1.60;;;;;;;;;;5092681;28;20024;-64
2022/02/16 10:54:31;;;;;;;3.45;1.60;;;;;;;;;;5092620;28;20024;-62
2022/02/16 10:56:57;;;;;;;3.65;1.65;;;;;;;;;;5092468;28;20478;-65
2022/02/16 10:59:23;;;;;;;3.40;1.73;;;;;;;;;;5092629;28;20024;-62
2022/02/16 11:01:49;;;;;;;2.75;1.20;;;;;;;;;;5074358;28;20022;-64
2022/02/16 11:04:15;;;;;;;3.65;1.45;;;;;;;;;;5086338;28;20025;-62
2022/02/16 11:06:43;;;;;;;5.03;1.73;;;;;;;;;;5071857;28;20024;-63
2022/02/16 11:09:16;;;;;;;3.88;1.75;;;;;;;;;;5090389;28;20483;-63
2022/02/16 11:11:42;;;;;;;3.50;1.60;;;;;;;;;;5092473;28;20023;-63
2022/02/16 11:14:09;;;;;;;3.22;1.50;;;;;;;;;;5092024;28;20028;-61
2022/02/16 11:16:36;;;;;;;2.97;1.52;;;;;;;;;;5092346;28;20111;-64
2022/02/16 11:19:18;;;;;;;2.88;1.40;;;;;;;;;;5092286;28;20032;-62
2022/02/16 11:21:57;;;;;;;2.72;1.17;;;;;;;;;;5092578;28;20024;-63
2022/02/16 11:24:29;;;;;;;4.25;1.30;;;;;;;;;;5091911;28;20103;-63
2022/02/16 11:26:56;;;;;;;3.00;1.67;;;;;;;;;;5091887;28;20028;-65
2022/02/16 11:29:28;;;;;;;3.97;1.50;;;;;;;;;;5092141;28;20024;-65
2022/02/16 11:32:15;;;;;;;2.72;0.93;;;;;;;;;;5092225;28;20032;-64
2022/02/16 11:34:42;;;;;;;2.80;1.30;;;;;;;;;;5091970;28;20016;-65
2022/02/16 11:37:08;;;;;;;2.50;1.17;;;;;;;;;;5091784;28;20040;-64
2022/02/16 11:39:49;;;;;;;3.22;1.30;;;;;;;;;;5091749;28;20036;-63
2022/02/16 11:42:17;;;;;;;3.15;1.23;;;;;;;;;;5091616;28;20055;-65
2022/02/16 11:44:49;;;;;;;3.42;1.60;;;;;;;;;;5091834;28;20028;-66
2022/02/16 11:47:35;;;;;;;2.35;1.20;;;;;;;;;;5091824;28;20382;-66
2022/02/16 11:50:03;;;;;;;3.33;1.30;;;;;;;;;;5074353;28;20107;-65
2022/02/16 11:52:37;;;;;;;2.15;1.05;;;;;;;;;;5091904;28;20027;-66
2022/02/16 11:55:04;;;;;;;2.75;1.42;;;;;;;;;;5091683;28;20066;-65
2022/02/16 11:57:43;;;;;;;6.72;1.77;;;;;;;;;;5091663;28;20081;-63
2022/02/16 12:00:18;;;;;;;3.08;1.00;;;;;;;;;;5091544;28;20022;-63
2022/02/16 12:03:05;;;;;;;3.22;1.30;;;;;;;;;;5091474;28;20540;-64
2022/02/16 12:05:55;;;;;;;7.45;1.27;;;;;;;;;;5091581;28;20024;-64
2022/02/16 12:08:37;;;;;;;2.30;1.20;;;;;;;;;;5073563;28;20034;-63
2022/02/16 12:11:15;;;;;;;2.40;1.20;;;;;;;;;;5091577;28;20023;-61
2022/02/16 12:13:46;;;;;;;5.35;1.80;;;;;;;;;;5091356;28;20520;-63
2022/02/16 12:16:17;;;;;;;5.25;1.67;;;;;;;;;;5091183;28;20378;-60
2022/02/16 12:18:44;;;;;;;4.28;1.58;;;;;;;;;;5091405;28;20036;-62
2022/02/16 12:21:11;;;;;;;4.63;1.70;;;;;;;;;;5091292;28;20028;-64
2022/02/16 12:23:45;;;;;;;7.30;1.92;;;;;;;;;;5091387;28;20062;-63
2022/02/16 12:26:18;;;;;;;5.90;1.92;;;;;;;;;;5091354;28;20046;-61
2022/02/16 12:28:59;;;;;;;4.88;1.83;;;;;;;;;;5091407;28;20024;-63
2022/02/16 12:31:26;;;;;;;6.47;1.77;;;;;;;;;;5091257;28;20031;-64
2022/02/16 12:33:57;;;;;;;5.05;1.70;;;;;;;;;;5091290;28;20031;-62
2022/02/16 12:36:23;;;;;;;4.93;1.80;;;;;;;;;;5091369;28;20103;-62
2022/02/16 12:38:52;;;;;;;9.00;1.33;;;;;;;;;;5095158;28;20028;-64
2022/02/16 12:41:19;;;;;;;3.97;1.50;;;;;;;;;;5095570;28;20066;-65
2022/02/16 12:44:02;;;;;;;3.08;1.38;;;;;;;;;;5095167;28;20387;-63
2022/02/16 12:46:28;;;;;;;;;;;;;;;;;;5095707;28;20170;-66
2022/02/16 12:48:54;;;;;;;3.80;1.40;;;;;;;;;;5095263;28;19910;-64
2022/02/16 12:51:24;;;;;;;3.40;1.60;;;;;;;;;;5077165;28;20115;-65
2022/02/16 12:53:51;;;;;;;3.53;1.33;;;;;;;;;;5074722;28;20060;-64
2022/02/16 12:56:17;;;;;;;3.67;1.60;;;;;;;;;;5074763;28;20025;-65
2022/02/16 12:58:43;;;;;;;3.60;1.42;;;;;;;;;;5074746;28;20357;-65
2022/02/16 13:01:09;;;;;;;3.03;1.33;;;;;;;;;;5074642;28;20056;-65
2022/02/16 13:03:35;;;;;;;5.13;1.35;;;;;;;;;;5056517;28;20693;-61
2022/02/16 13:06:06;;;;;;;4.10;1.60;;;;;;;;;;5074438;28;20016;-62
2022/02/16 13:08:32;;;;;;;4.65;1.63;;;;;;;;;;5074328;28;20020;-65
2022/02/16 13:10:58;;;;;;;3.17;1.30;;;;;;;;;;5074281;28;20480;-65
2022/02/16 13:13:24;;;;;;;3.97;1.52;;;;;;;;;;5074468;28;20027;-66
2022/02/16 13:15:50;;;;;;;3.40;1.17;;;;;;;;;;5083224;28;20024;-65
2022/02/16 13:18:18;;;;;;;4.95;1.58;;;;;;;;;;5094574;28;20497;-66
2022/02/16 13:20:44;;;;;;;2.92;1.48;;;;;;;;;;5094954;28;20024;-65
2022/02/16 13:23:14;;;;;;;3.30;1.40;;;;;;;;;;5094924;28;20046;-66
2022/02/16 13:25:42;;;;;;;2.78;0.95;;;;;;;;;;5094731;28;20128;-66
2022/02/16 13:28:16;;;;;;;3.55;1.20;;;;;;;;;;5094779;28;20035;-63
2022/02/16 13:30:43;;;;;;;2.80;1.25;;;;;;;;;;5094637;28;20521;-62
2022/02/16 13:33:16;;;;;;;3.10;1.30;;;;;;;;;;5094641;28;20165;-62
2022/02/16 13:35:44;;;;;;;3.58;1.20;;;;;;;;;;5094580;28;20031;-62
2022/02/16 13:38:11;;;;;;;4.00;1.13;;;;;;;;;;5094413;28;20039;-60
2022/02/16 13:40:46;;;;;;;2.45;1.17;;;;;;;;;;5094457;28;20489;-62
2022/02/16 13:43:12;;;;;;;3.78;1.17;;;;;;;;;;5094284;28;20111;-62
2022/02/16 13:45:38;;;;;;;4.45;1.38;;;;;;;;;;5069537;28;20024;-62
2022/02/16 13:48:06;;;;;;;2.83;0.98;;;;;;;;;;5093436;28;20024;-63
2022/02/16 13:50:36;;;;;;;1.92;0.95;;;;;;;;;;5093360;28;20024;-65
2022/02/16 13:53:03;;;;;;;2.90;1.13;;;;;;;;;;5094381;28;20111;-63
2022/02/16 13:55:43;;;;;;;2.97;1.10;;;;;;;;;;5094780;28;20055;-63
2022/02/16 13:58:09;;;;;;;2.00;0.95;;;;;;;;;;5094151;28;20043;-64
2022/02/16 14:00:36;;;;;;;2.83;1.00;;;;;;;;;;5094246;28;20077;-61
2022/02/16 14:03:09;;;;;;;1.73;0.93;;;;;;;;;;5070120;28;20129;-64
2022/02/16 14:05:36;;;;;;;2.20;0.90;;;;;;;;;;5065433;28;20682;-66
2022/02/16 14:08:03;;;;;;;2.53;1.02;;;;;;;;;;5093808;28;20039;-63
2022/02/16 14:10:29;;;;;;;1.83;0.88;;;;;;;;;;5076829;28;20040;-65
2022/02/16 14:12:55;;;;;;;6.85;1.10;;;;;;;;;;5073366;28;20025;-63
2022/02/16 14:15:22;;;;;;;3.05;0.73;;;;;;;;;;5073189;28;20146;-63
2022/02/16 14:17:50;;;;;;;2.05;0.82;;;;;;;;;;5073326;28;20041;-64
2022/02/16 14:20:16;;;;;;;1.95;0.90;;;;;;;;;;5073356;28;20077;-64
2022/02/16 14:22:42;;;;;;;4.30;0.80;;;;;;;;;;5090366;28;20108;-64
2022/02/16 14:25:09;;;;;;;1.80;0.80;;;;;;;;;;5093389;28;20031;-65
2022/02/16 14:27:35;;;;;;;2.28;0.80;;;;;;;;;;5093716;28;20117;-65
2022/02/16 14:30:02;;;;;;;1.30;0.60;;;;;;;;;;5093296;28;20012;-65
2022/02/16 14:32:29;;;;;;;1.42;0.68;;;;;;;;;;5092674;28;20013;-63
2022/02/16 14:34:58;;;;;;;1.63;0.80;;;;;;;;;;5092969;28;20073;-65
2022/02/16 14:37:25;;;;;;;4.45;1.00;;;;;;;;;;5093169;28;20024;-64